Valor — WDD8691 — position and weather

sailwx.info

Track history (hours):
 
Tides and Currents Weather Stations Pressure Air Temp Water Temp Dewpoint Dewpoint Depression Visibility Wind Speed Wind Dir Waves Ship Positions

Valor

Owner: Crowley Marine Services, Seattle, WA. More information available from US FCC via Universal Licensing System and Coast Guard Vessel Documentation Center.

Last reported at 2015-May-30 05:33 UTC. Time now 2015-May-30 14:29 UTC.
Position N 38°02' W 122°08'.

Length 8 m; draft 5.5 m.

Type: Tug. MMSI: 367301480.

Date/timePositionNaut miles runAvg speedWind from/ knotsBaromVisibWave heightAir tempDewpointWater temp
2015-May-30 05:33N 38°02' W 122°08'0 0.1
2015-May-30 04:30N 38°02' W 122°08'1 0.1
2015-May-29 19:06N 38°02' W 122°09'2 0.1
2015-May-29 06:22N 38°03' W 122°11'3 3.9
2015-May-29 05:33N 38°03' W 122°15'0 0.0
2015-May-29 04:33N 38°03' W 122°15'0 0.0
2015-May-29 03:22N 38°03' W 122°15'7 6.9
2015-May-29 02:23N 38°01' W 122°23'6 7.7
2015-May-29 01:33N 37°55' W 122°24'0 0.2
2015-May-29 00:33N 37°55' W 122°25'7 7.6
2015-May-28 23:33N 37°49' W 122°20'1 1.3
2015-May-28 22:33N 37°49' W 122°19'0 0.0
2015-May-28 21:33N 37°49' W 122°19'0 0.0
2015-May-28 20:33N 37°49' W 122°19'0 0.0
2015-May-28 19:33N 37°49' W 122°19'0 0.0
2015-May-28 18:33N 37°49' W 122°19'0 0.0
2015-May-28 17:33N 37°49' W 122°19'0 0.0
2015-May-28 16:33N 37°49' W 122°19'0 0.0
2015-May-28 15:33N 37°49' W 122°19'0 0.0
2015-May-28 14:33N 37°49' W 122°19'1 1.0
2015-May-28 13:33N 37°49' W 122°20'3 2.6
2015-May-28 12:33N 37°46' W 122°21'3 2.9
2015-May-28 11:33N 37°49' W 122°20'1 0.9
2015-May-28 10:33N 37°49' W 122°19'0 0.0
2015-May-28 09:33N 37°49' W 122°19'0 0.0
2015-May-28 08:33N 37°49' W 122°19'0 0.0
2015-May-28 07:33N 37°49' W 122°19'0 0.0
2015-May-28 06:33N 37°49' W 122°19'2 2.1
2015-May-28 05:33N 37°49' W 122°21'6 5.7
2015-May-28 04:32N 37°55' W 122°24'2 1.9
2015-May-28 03:33N 37°55' W 122°22'3 3.0
2015-May-28 02:33N 37°53' W 122°25'6 5.9
2015-May-28 01:33N 37°49' W 122°19'0 0.0
2015-May-28 00:33N 37°49' W 122°19'0 0.0
2015-May-27 23:33N 37°49' W 122°19'0 0.0
2015-May-27 22:33N 37°49' W 122°19'0 0.0
2015-May-27 21:33N 37°49' W 122°19'0 0.0
2015-May-27 20:33N 37°49' W 122°19'0 0.0
2015-May-27 19:33N 37°49' W 122°19'0 0.0
2015-May-27 18:33N 37°49' W 122°19'0 0.0
2015-May-27 17:33N 37°49' W 122°19'0 0.0
2015-May-27 16:33N 37°49' W 122°19'0 0.0
2015-May-27 15:33N 37°49' W 122°19'0 0.0
2015-May-27 14:33N 37°49' W 122°19'0 0.0
2015-May-27 13:33N 37°49' W 122°19'0 0.0
2015-May-27 12:33N 37°49' W 122°19'2 2.0
2015-May-27 11:33N 37°48' W 122°17'1 1.4
2015-May-27 10:33N 37°48' W 122°19'2 1.6
2015-May-27 09:33N 37°49' W 122°19'0 0.0
2015-May-27 08:33N 37°49' W 122°19'0 0.0
2015-May-27 07:33N 37°49' W 122°19'0 0.0
2015-May-27 06:33N 37°49' W 122°19'0 0.0
2015-May-27 05:33N 37°49' W 122°19'0 0.0
2015-May-27 04:33N 37°49' W 122°19'4 4.3
2015-May-27 03:33N 37°46' W 122°21'0 0.0
2015-May-27 02:33N 37°46' W 122°21'4 3.8
2015-May-27 01:33N 37°49' W 122°19'1 0.5
2015-May-27 00:34N 37°49' W 122°19'3 3.2
2015-May-26 23:33N 37°50' W 122°23'10 8.6
2015-May-26 22:27N 37°60' W 122°25'1010.1
2015-May-26 21:29N 38°04' W 122°13'0 0.1
2015-May-26 17:09N 38°04' W 122°13'910.6
2015-May-26 16:19N 38°01' W 122°24'7 9.8
2015-May-26 15:34N 37°53' W 122°25'8 8.2
2015-May-26 14:34N 37°48' W 122°17'1 1.0
2015-May-26 13:34N 37°48' W 122°19'1 1.2
2015-May-26 12:34N 37°49' W 122°19'1 0.7
2015-May-26 11:34N 37°49' W 122°19'0 0.0
2015-May-26 10:34N 37°49' W 122°19'0 0.0
2015-May-26 09:34N 37°49' W 122°19'1 0.9
2015-May-26 08:34N 37°49' W 122°20'1 0.9
2015-May-26 07:33N 37°49' W 122°19'0 0.0
2015-May-26 06:34N 37°49' W 122°19'0 0.0
2015-May-26 05:34N 37°49' W 122°19'0 0.0
2015-May-26 04:34N 37°49' W 122°19'0 0.0
2015-May-26 03:34N 37°49' W 122°19'0 0.0
2015-May-26 02:34N 37°49' W 122°19'0 0.0
2015-May-26 01:33N 37°49' W 122°19'0 0.0
2015-May-26 00:34N 37°49' W 122°19'0 0.0
2015-May-25 23:34N 37°49' W 122°19'2 1.7
2015-May-25 22:33N 37°48' W 122°19'1 1.5
2015-May-25 21:33N 37°49' W 122°19'0 0.3
2015-May-25 20:34N 37°49' W 122°19'0 0.0
2015-May-25 19:34N 37°49' W 122°19'0 0.0
2015-May-25 18:33N 37°49' W 122°19'2 1.6
2015-May-25 17:34N 37°48' W 122°19'2 2.0
2015-May-25 16:34N 37°48' W 122°21'1 1.1
2015-May-25 15:34N 37°49' W 122°20'0 0.0
2015-May-25 14:33N 37°49' W 122°20'0 0.0
2015-May-25 13:33N 37°49' W 122°20'0 0.1
2015-May-25 12:34N 37°49' W 122°20'2 2.3
2015-May-25 11:34N 37°47' W 122°21'2 1.8
2015-May-25 10:34N 37°48' W 122°21'2 1.8
2015-May-25 09:34N 37°49' W 122°19'0 0.0
2015-May-25 08:34N 37°49' W 122°19'0 0.0
2015-May-25 07:33N 37°49' W 122°19'0 0.0
2015-May-25 06:34N 37°49' W 122°19'0 0.0
2015-May-25 05:34N 37°49' W 122°19'0 0.0
2015-May-25 04:34N 37°49' W 122°19'0 0.0
2015-May-25 03:33N 37°49' W 122°19'0 0.0
2015-May-25 02:34N 37°49' W 122°19'0 0.0
2015-May-25 01:34N 37°49' W 122°19'2 2.1
2015-May-25 00:33N 37°48' W 122°17'1 1.5
2015-May-24 23:33N 37°48' W 122°19'2 1.5
2015-May-24 22:34N 37°49' W 122°19'0 0.0
2015-May-24 21:33N 37°49' W 122°19'0 0.0
2015-May-24 20:34N 37°49' W 122°19'0 0.0
2015-May-24 19:34N 37°49' W 122°19'0 0.0
2015-May-24 18:33N 37°49' W 122°19'0 0.0
2015-May-24 17:33N 37°49' W 122°19'0 0.0
2015-May-24 16:34N 37°49' W 122°19'0 0.0
2015-May-24 15:34N 37°49' W 122°19'0 0.0
2015-May-24 14:32N 37°49' W 122°19'0 0.0
2015-May-24 13:33N 37°49' W 122°19'2 2.4
2015-May-24 12:33N 37°48' W 122°21'8 7.7
2015-May-24 11:34N 37°49' W 122°31'0 0.1
2015-May-24 10:28N 37°49' W 122°31'3 3.3
2015-May-24 09:34N 37°50' W 122°27'4 3.7
2015-May-24 08:33N 37°53' W 122°26'6 6.1
2015-May-24 07:31N 37°59' W 122°25'6 6.1
2015-May-24 06:33N 38°03' W 122°19'8 5.9
2015-May-24 05:08N 38°02' W 122°09'2 0.2
2015-May-23 20:17N 38°03' W 122°11'3 4.1
2015-May-23 19:30N 38°03' W 122°15'0 0.0
2015-May-23 18:03N 38°03' W 122°15'0 0.0
2015-May-23 17:31N 38°03' W 122°15'0 0.0
2015-May-23 16:32N 38°03' W 122°15'0 0.0
2015-May-23 15:34N 38°03' W 122°15'0 0.0
2015-May-23 14:33N 38°03' W 122°15'0 0.0
2015-May-23 12:26N 38°03' W 122°15'0 0.0
2015-May-23 11:27N 38°03' W 122°15'0 0.0
2015-May-23 08:29N 38°03' W 122°15'0 0.0
2015-May-23 07:33N 38°03' W 122°15'0 0.0
2015-May-23 06:33N 38°03' W 122°15'3 2.8
2015-May-23 05:24N 38°03' W 122°11'1 0.6
2015-May-23 03:26N 38°02' W 122°09'1 0.1
2015-May-22 11:09N 38°02' W 122°08'2 3.1
2015-May-22 10:28N 38°03' W 122°11'5 4.7
2015-May-22 09:23N 38°03' W 122°17'1 0.3
2015-May-22 07:11N 38°03' W 122°18'3 3.9
2015-May-22 06:32N 38°03' W 122°15'0 0.0
2015-May-22 05:32N 38°03' W 122°15'0 0.1
2015-May-22 04:33N 38°04' W 122°15'1 1.0
2015-May-22 03:33N 38°04' W 122°13'4 2.1
2015-May-22 01:33N 38°02' W 122°08'4 1.3
2015-May-21 22:29N 38°04' W 122°13'910.1
2015-May-21 21:33N 38°00' W 122°24'10 9.9
2015-May-21 20:33N 37°51' W 122°23'3 3.4
2015-May-21 19:33N 37°49' W 122°19'0 0.0
2015-May-21 18:33N 37°49' W 122°19'0 0.0
2015-May-21 17:33N 37°49' W 122°19'0 0.0
2015-May-21 16:33N 37°49' W 122°19'0 0.0
2015-May-21 15:33N 37°49' W 122°19'0 0.0
2015-May-21 14:32N 37°49' W 122°19'0 0.0
2015-May-21 13:33N 37°49' W 122°19'0 0.0
2015-May-21 12:33N 37°49' W 122°19'0 0.0
2015-May-21 11:33N 37°49' W 122°19'0 0.0
2015-May-21 10:33N 37°49' W 122°19'0 0.0
2015-May-21 09:33N 37°49' W 122°19'1 1.0
2015-May-21 08:33N 37°49' W 122°20'0 0.0
2015-May-21 07:33N 37°49' W 122°20'4 4.2
2015-May-21 06:33N 37°51' W 122°24'4 4.0
2015-May-21 05:33N 37°55' W 122°25'6 5.6
2015-May-21 04:33N 37°50' W 122°24'6 6.1
2015-May-21 03:33N 37°44' W 122°20'5 5.1
2015-May-21 02:33N 37°49' W 122°19'0 0.0
2015-May-21 01:33N 37°49' W 122°19'0 0.0
2015-May-21 00:33N 37°49' W 122°19'0 0.0
2015-May-20 23:33N 37°49' W 122°19'0 0.0
2015-May-20 22:33N 37°49' W 122°19'0 0.0
2015-May-20 21:33N 37°49' W 122°19'0 0.0
2015-May-20 20:33N 37°49' W 122°19'0 0.0
2015-May-20 19:33N 37°49' W 122°19'0 0.0
2015-May-20 18:33N 37°49' W 122°19'0 0.0
2015-May-20 17:33N 37°49' W 122°19'0 0.0
2015-May-20 16:33N 37°49' W 122°19'0 0.0
2015-May-20 15:33N 37°49' W 122°19'0 0.2
2015-May-20 14:33N 37°49' W 122°19'2 1.9
2015-May-20 13:33N 37°48' W 122°18'1 1.5
2015-May-20 12:33N 37°48' W 122°19'0 0.1
2015-May-20 11:33N 37°48' W 122°19'0 0.0
2015-May-20 10:33N 37°48' W 122°19'3 3.0
2015-May-20 09:33N 37°49' W 122°23'1 0.8
2015-May-20 08:33N 37°48' W 122°24'0 0.3
2015-May-20 07:33N 37°48' W 122°24'0 0.0
2015-May-20 06:33N 37°48' W 122°24'0 0.0
2015-May-20 05:33N 37°48' W 122°24'  
Track history (hours):
 
Tides and Currents Weather Stations Pressure Air Temp Water Temp Dewpoint Dewpoint Depression Visibility Wind Speed Wind Dir Waves Ship Positions

Valor

Owner: Crowley Marine Services, Seattle, WA. More information available from US FCC via Universal Licensing System and Coast Guard Vessel Documentation Center.

Last reported at 2015-May-30 05:33 UTC. Time now 2015-May-30 14:29 UTC.
Position N 38°02' W 122°08'.

Length 8 m; draft 5.5 m.

Type: Tug. MMSI: 367301480.

Date/timePositionNaut miles runAvg speedWind from/ knotsBaromVisibWave heightAir tempDewpointWater temp
2015-May-30 05:33N 38°02' W 122°08'0 0.1
2015-May-30 04:30N 38°02' W 122°08'1 0.1
2015-May-29 19:06N 38°02' W 122°09'2 0.1
2015-May-29 06:22N 38°03' W 122°11'3 3.9
2015-May-29 05:33N 38°03' W 122°15'0 0.0
2015-May-29 04:33N 38°03' W 122°15'0 0.0
2015-May-29 03:22N 38°03' W 122°15'7 6.9
2015-May-29 02:23N 38°01' W 122°23'6 7.7
2015-May-29 01:33N 37°55' W 122°24'0 0.2
2015-May-29 00:33N 37°55' W 122°25'7 7.6
2015-May-28 23:33N 37°49' W 122°20'1 1.3
2015-May-28 22:33N 37°49' W 122°19'0 0.0
2015-May-28 21:33N 37°49' W 122°19'0 0.0
2015-May-28 20:33N 37°49' W 122°19'0 0.0
2015-May-28 19:33N 37°49' W 122°19'0 0.0
2015-May-28 18:33N 37°49' W 122°19'0 0.0
2015-May-28 17:33N 37°49' W 122°19'0 0.0
2015-May-28 16:33N 37°49' W 122°19'0 0.0
2015-May-28 15:33N 37°49' W 122°19'0 0.0
2015-May-28 14:33N 37°49' W 122°19'1 1.0
2015-May-28 13:33N 37°49' W 122°20'3 2.6
2015-May-28 12:33N 37°46' W 122°21'3 2.9
2015-May-28 11:33N 37°49' W 122°20'1 0.9
2015-May-28 10:33N 37°49' W 122°19'0 0.0
2015-May-28 09:33N 37°49' W 122°19'0 0.0
2015-May-28 08:33N 37°49' W 122°19'0 0.0
2015-May-28 07:33N 37°49' W 122°19'0 0.0
2015-May-28 06:33N 37°49' W 122°19'2 2.1
2015-May-28 05:33N 37°49' W 122°21'6 5.7
2015-May-28 04:32N 37°55' W 122°24'2 1.9
2015-May-28 03:33N 37°55' W 122°22'3 3.0
2015-May-28 02:33N 37°53' W 122°25'6 5.9
2015-May-28 01:33N 37°49' W 122°19'0 0.0
2015-May-28 00:33N 37°49' W 122°19'0 0.0
2015-May-27 23:33N 37°49' W 122°19'0 0.0
2015-May-27 22:33N 37°49' W 122°19'0 0.0
2015-May-27 21:33N 37°49' W 122°19'0 0.0
2015-May-27 20:33N 37°49' W 122°19'0 0.0
2015-May-27 19:33N 37°49' W 122°19'0 0.0
2015-May-27 18:33N 37°49' W 122°19'0 0.0
2015-May-27 17:33N 37°49' W 122°19'0 0.0
2015-May-27 16:33N 37°49' W 122°19'0 0.0
2015-May-27 15:33N 37°49' W 122°19'0 0.0
2015-May-27 14:33N 37°49' W 122°19'0 0.0
2015-May-27 13:33N 37°49' W 122°19'0 0.0
2015-May-27 12:33N 37°49' W 122°19'2 2.0
2015-May-27 11:33N 37°48' W 122°17'1 1.4
2015-May-27 10:33N 37°48' W 122°19'2 1.6
2015-May-27 09:33N 37°49' W 122°19'0 0.0
2015-May-27 08:33N 37°49' W 122°19'0 0.0
2015-May-27 07:33N 37°49' W 122°19'0 0.0
2015-May-27 06:33N 37°49' W 122°19'0 0.0
2015-May-27 05:33N 37°49' W 122°19'0 0.0
2015-May-27 04:33N 37°49' W 122°19'4 4.3
2015-May-27 03:33N 37°46' W 122°21'0 0.0
2015-May-27 02:33N 37°46' W 122°21'4 3.8
2015-May-27 01:33N 37°49' W 122°19'1 0.5
2015-May-27 00:34N 37°49' W 122°19'3 3.2
2015-May-26 23:33N 37°50' W 122°23'10 8.6
2015-May-26 22:27N 37°60' W 122°25'1010.1
2015-May-26 21:29N 38°04' W 122°13'0 0.1
2015-May-26 17:09N 38°04' W 122°13'910.6
2015-May-26 16:19N 38°01' W 122°24'7 9.8
2015-May-26 15:34N 37°53' W 122°25'8 8.2
2015-May-26 14:34N 37°48' W 122°17'1 1.0
2015-May-26 13:34N 37°48' W 122°19'1 1.2
2015-May-26 12:34N 37°49' W 122°19'1 0.7
2015-May-26 11:34N 37°49' W 122°19'0 0.0
2015-May-26 10:34N 37°49' W 122°19'0 0.0
2015-May-26 09:34N 37°49' W 122°19'1 0.9
2015-May-26 08:34N 37°49' W 122°20'1 0.9
2015-May-26 07:33N 37°49' W 122°19'0 0.0
2015-May-26 06:34N 37°49' W 122°19'0 0.0
2015-May-26 05:34N 37°49' W 122°19'0 0.0
2015-May-26 04:34N 37°49' W 122°19'0 0.0
2015-May-26 03:34N 37°49' W 122°19'0 0.0
2015-May-26 02:34N 37°49' W 122°19'0 0.0
2015-May-26 01:33N 37°49' W 122°19'0 0.0
2015-May-26 00:34N 37°49' W 122°19'0 0.0
2015-May-25 23:34N 37°49' W 122°19'2 1.7
2015-May-25 22:33N 37°48' W 122°19'1 1.5
2015-May-25 21:33N 37°49' W 122°19'0 0.3
2015-May-25 20:34N 37°49' W 122°19'0 0.0
2015-May-25 19:34N 37°49' W 122°19'0 0.0
2015-May-25 18:33N 37°49' W 122°19'2 1.6
2015-May-25 17:34N 37°48' W 122°19'2 2.0
2015-May-25 16:34N 37°48' W 122°21'1 1.1
2015-May-25 15:34N 37°49' W 122°20'0 0.0
2015-May-25 14:33N 37°49' W 122°20'0 0.0
2015-May-25 13:33N 37°49' W 122°20'0 0.1
2015-May-25 12:34N 37°49' W 122°20'2 2.3
2015-May-25 11:34N 37°47' W 122°21'2 1.8
2015-May-25 10:34N 37°48' W 122°21'2 1.8
2015-May-25 09:34N 37°49' W 122°19'0 0.0
2015-May-25 08:34N 37°49' W 122°19'0 0.0
2015-May-25 07:33N 37°49' W 122°19'0 0.0
2015-May-25 06:34N 37°49' W 122°19'0 0.0
2015-May-25 05:34N 37°49' W 122°19'0 0.0
2015-May-25 04:34N 37°49' W 122°19'0 0.0
2015-May-25 03:33N 37°49' W 122°19'0 0.0
2015-May-25 02:34N 37°49' W 122°19'0 0.0
2015-May-25 01:34N 37°49' W 122°19'2 2.1
2015-May-25 00:33N 37°48' W 122°17'1 1.5
2015-May-24 23:33N 37°48' W 122°19'2 1.5
2015-May-24 22:34N 37°49' W 122°19'0 0.0
2015-May-24 21:33N 37°49' W 122°19'0 0.0
2015-May-24 20:34N 37°49' W 122°19'0 0.0
2015-May-24 19:34N 37°49' W 122°19'0 0.0
2015-May-24 18:33N 37°49' W 122°19'0 0.0
2015-May-24 17:33N 37°49' W 122°19'0 0.0
2015-May-24 16:34N 37°49' W 122°19'0 0.0
2015-May-24 15:34N 37°49' W 122°19'0 0.0
2015-May-24 14:32N 37°49' W 122°19'0 0.0
2015-May-24 13:33N 37°49' W 122°19'2 2.4
2015-May-24 12:33N 37°48' W 122°21'8 7.7
2015-May-24 11:34N 37°49' W 122°31'0 0.1
2015-May-24 10:28N 37°49' W 122°31'3 3.3
2015-May-24 09:34N 37°50' W 122°27'4 3.7
2015-May-24 08:33N 37°53' W 122°26'6 6.1
2015-May-24 07:31N 37°59' W 122°25'6 6.1
2015-May-24 06:33N 38°03' W 122°19'8 5.9
2015-May-24 05:08N 38°02' W 122°09'2 0.2
2015-May-23 20:17N 38°03' W 122°11'3 4.1
2015-May-23 19:30N 38°03' W 122°15'0 0.0
2015-May-23 18:03N 38°03' W 122°15'0 0.0
2015-May-23 17:31N 38°03' W 122°15'0 0.0
2015-May-23 16:32N 38°03' W 122°15'0 0.0
2015-May-23 15:34N 38°03' W 122°15'0 0.0
2015-May-23 14:33N 38°03' W 122°15'0 0.0
2015-May-23 12:26N 38°03' W 122°15'0 0.0
2015-May-23 11:27N 38°03' W 122°15'0 0.0
2015-May-23 08:29N 38°03' W 122°15'0 0.0
2015-May-23 07:33N 38°03' W 122°15'0 0.0
2015-May-23 06:33N 38°03' W 122°15'3 2.8
2015-May-23 05:24N 38°03' W 122°11'1 0.6
2015-May-23 03:26N 38°02' W 122°09'1 0.1
2015-May-22 11:09N 38°02' W 122°08'2 3.1
2015-May-22 10:28N 38°03' W 122°11'5 4.7
2015-May-22 09:23N 38°03' W 122°17'1 0.3
2015-May-22 07:11N 38°03' W 122°18'3 3.9
2015-May-22 06:32N 38°03' W 122°15'0 0.0
2015-May-22 05:32N 38°03' W 122°15'0 0.1
2015-May-22 04:33N 38°04' W 122°15'1 1.0
2015-May-22 03:33N 38°04' W 122°13'4 2.1
2015-May-22 01:33N 38°02' W 122°08'4 1.3
2015-May-21 22:29N 38°04' W 122°13'910.1
2015-May-21 21:33N 38°00' W 122°24'10 9.9
2015-May-21 20:33N 37°51' W 122°23'3 3.4
2015-May-21 19:33N 37°49' W 122°19'0 0.0
2015-May-21 18:33N 37°49' W 122°19'0 0.0
2015-May-21 17:33N 37°49' W 122°19'0 0.0
2015-May-21 16:33N 37°49' W 122°19'0 0.0
2015-May-21 15:33N 37°49' W 122°19'0 0.0
2015-May-21 14:32N 37°49' W 122°19'0 0.0
2015-May-21 13:33N 37°49' W 122°19'0 0.0
2015-May-21 12:33N 37°49' W 122°19'0 0.0
2015-May-21 11:33N 37°49' W 122°19'0 0.0
2015-May-21 10:33N 37°49' W 122°19'0 0.0
2015-May-21 09:33N 37°49' W 122°19'1 1.0
2015-May-21 08:33N 37°49' W 122°20'0 0.0
2015-May-21 07:33N 37°49' W 122°20'4 4.2
2015-May-21 06:33N 37°51' W 122°24'4 4.0
2015-May-21 05:33N 37°55' W 122°25'6 5.6
2015-May-21 04:33N 37°50' W 122°24'6 6.1
2015-May-21 03:33N 37°44' W 122°20'5 5.1
2015-May-21 02:33N 37°49' W 122°19'0 0.0
2015-May-21 01:33N 37°49' W 122°19'0 0.0
2015-May-21 00:33N 37°49' W 122°19'0 0.0
2015-May-20 23:33N 37°49' W 122°19'0 0.0
2015-May-20 22:33N 37°49' W 122°19'0 0.0
2015-May-20 21:33N 37°49' W 122°19'0 0.0
2015-May-20 20:33N 37°49' W 122°19'0 0.0
2015-May-20 19:33N 37°49' W 122°19'0 0.0
2015-May-20 18:33N 37°49' W 122°19'0 0.0
2015-May-20 17:33N 37°49' W 122°19'0 0.0
2015-May-20 16:33N 37°49' W 122°19'0 0.0
2015-May-20 15:33N 37°49' W 122°19'0 0.2
2015-May-20 14:33N 37°49' W 122°19'2 1.9
2015-May-20 13:33N 37°48' W 122°18'1 1.5
2015-May-20 12:33N 37°48' W 122°19'0 0.1
2015-May-20 11:33N 37°48' W 122°19'0 0.0
2015-May-20 10:33N 37°48' W 122°19'3 3.0
2015-May-20 09:33N 37°49' W 122°23'1 0.8
2015-May-20 08:33N 37°48' W 122°24'0 0.3
2015-May-20 07:33N 37°48' W 122°24'0 0.0
2015-May-20 06:33N 37°48' W 122°24'0 0.0
2015-May-20 05:33N 37°48' W 122°24'  

Dump ship's entire track history